sensor_id;sensor_type;location;lat;lon;timestamp;P1;durP1;ratioP1;P2;durP2;ratioP2
23260;SDS011;11799;47.740;-3.390;2022-07-06T00:01:00;2.22;;;1.52;;
23260;SDS011;11799;47.740;-3.390;2022-07-06T00:03:25;2.70;;;1.60;;
23260;SDS011;11799;47.740;-3.390;2022-07-06T00:05:52;3.97;;;1.52;;
23260;SDS011;11799;47.740;-3.390;2022-07-06T00:08:18;2.90;;;1.38;;
23260;SDS011;11799;47.740;-3.390;2022-07-06T00:10:43;4.00;;;1.40;;
23260;SDS011;11799;47.740;-3.390;2022-07-06T00:13:09;2.92;;;1.50;;
23260;SDS011;11799;47.740;-3.390;2022-07-06T00:15:34;2.50;;;1.48;;
23260;SDS011;11799;47.740;-3.390;2022-07-06T00:18:00;3.65;;;1.52;;
23260;SDS011;11799;47.740;-3.390;2022-07-06T00:20:26;3.95;;;1.50;;
23260;SDS011;11799;47.740;-3.390;2022-07-06T00:22:51;6.13;;;1.70;;
23260;SDS011;11799;47.740;-3.390;2022-07-06T00:25:17;3.60;;;1.45;;
23260;SDS011;11799;47.740;-3.390;2022-07-06T00:27:42;3.05;;;1.70;;
23260;SDS011;11799;47.740;-3.390;2022-07-06T00:30:08;6.90;;;1.92;;
23260;SDS011;11799;47.740;-3.390;2022-07-06T00:32:34;2.78;;;1.40;;
23260;SDS011;11799;47.740;-3.390;2022-07-06T00:34:59;4.10;;;1.40;;
23260;SDS011;11799;47.740;-3.390;2022-07-06T00:37:25;4.47;;;1.60;;
23260;SDS011;11799;47.740;-3.390;2022-07-06T00:39:51;3.83;;;1.55;;
23260;SDS011;11799;47.740;-3.390;2022-07-06T00:42:16;5.28;;;1.75;;
23260;SDS011;11799;47.740;-3.390;2022-07-06T00:44:42;3.38;;;1.33;;
23260;SDS011;11799;47.740;-3.390;2022-07-06T00:47:08;5.03;;;1.63;;
23260;SDS011;11799;47.740;-3.390;2022-07-06T00:49:34;5.15;;;1.75;;
23260;SDS011;11799;47.740;-3.390;2022-07-06T00:52:18;5.00;;;1.63;;
23260;SDS011;11799;47.740;-3.390;2022-07-06T00:54:44;5.05;;;2.67;;
23260;SDS011;11799;47.740;-3.390;2022-07-06T00:57:11;4.13;;;1.58;;
23260;SDS011;11799;47.740;-3.390;2022-07-06T00:59:37;3.80;;;1.83;;
23260;SDS011;11799;47.740;-3.390;2022-07-06T01:02:03;4.43;;;1.50;;
23260;SDS011;11799;47.740;-3.390;2022-07-06T01:04:29;3.38;;;1.60;;
23260;SDS011;11799;47.740;-3.390;2022-07-06T01:06:54;4.90;;;1.52;;
23260;SDS011;11799;47.740;-3.390;2022-07-06T01:09:21;3.88;;;1.50;;
23260;SDS011;11799;47.740;-3.390;2022-07-06T01:11:48;3.60;;;1.38;;
23260;SDS011;11799;47.740;-3.390;2022-07-06T01:14:14;3.22;;;1.52;;
23260;SDS011;11799;47.740;-3.390;2022-07-06T01:16:40;2.28;;;1.42;;
23260;SDS011;11799;47.740;-3.390;2022-07-06T01:19:06;4.68;;;1.70;;
23260;SDS011;11799;47.740;-3.390;2022-07-06T01:21:31;2.95;;;1.67;;
23260;SDS011;11799;47.740;-3.390;2022-07-06T01:23:57;3.88;;;1.60;;
23260;SDS011;11799;47.740;-3.390;2022-07-06T01:26:23;4.85;;;1.50;;
23260;SDS011;11799;47.740;-3.390;2022-07-06T01:28:49;6.00;;;2.17;;
23260;SDS011;11799;47.740;-3.390;2022-07-06T01:31:26;4.22;;;1.80;;
23260;SDS011;11799;47.740;-3.390;2022-07-06T01:33:53;4.53;;;2.00;;
23260;SDS011;11799;47.740;-3.390;2022-07-06T01:36:20;3.47;;;1.55;;
23260;SDS011;11799;47.740;-3.390;2022-07-06T01:38:50;4.15;;;1.90;;
23260;SDS011;11799;47.740;-3.390;2022-07-06T01:41:20;4.70;;;1.88;;
23260;SDS011;11799;47.740;-3.390;2022-07-06T01:43:46;4.72;;;1.58;;
23260;SDS011;11799;47.740;-3.390;2022-07-06T01:46:13;7.35;;;1.92;;
23260;SDS011;11799;47.740;-3.390;2022-07-06T01:48:39;4.35;;;1.80;;
23260;SDS011;11799;47.740;-3.390;2022-07-06T01:51:05;4.57;;;1.50;;
23260;SDS011;11799;47.740;-3.390;2022-07-06T01:53:31;5.72;;;1.77;;
23260;SDS011;11799;47.740;-3.390;2022-07-06T01:55:58;3.10;;;1.63;;
23260;SDS011;11799;47.740;-3.390;2022-07-06T01:58:24;4.93;;;2.00;;
23260;SDS011;11799;47.740;-3.390;2022-07-06T02:00:50;5.00;;;1.73;;
23260;SDS011;11799;47.740;-3.390;2022-07-06T02:03:15;5.93;;;2.00;;
23260;SDS011;11799;47.740;-3.390;2022-07-06T02:05:41;8.85;;;1.70;;
23260;SDS011;11799;47.740;-3.390;2022-07-06T02:08:07;4.55;;;2.00;;
23260;SDS011;11799;47.740;-3.390;2022-07-06T02:10:32;4.38;;;1.95;;
23260;SDS011;11799;47.740;-3.390;2022-07-06T02:12:58;2.50;;;1.90;;
23260;SDS011;11799;47.740;-3.390;2022-07-06T02:15:24;3.45;;;1.80;;
23260;SDS011;11799;47.740;-3.390;2022-07-06T02:17:49;3.38;;;1.90;;
23260;SDS011;11799;47.740;-3.390;2022-07-06T02:20:15;4.55;;;1.90;;
23260;SDS011;11799;47.740;-3.390;2022-07-06T02:22:41;4.50;;;2.00;;
23260;SDS011;11799;47.740;-3.390;2022-07-06T02:25:07;4.72;;;1.77;;
23260;SDS011;11799;47.740;-3.390;2022-07-06T02:27:33;3.17;;;1.80;;
23260;SDS011;11799;47.740;-3.390;2022-07-06T02:30:02;5.57;;;2.10;;
23260;SDS011;11799;47.740;-3.390;2022-07-06T02:32:30;2.53;;;1.85;;
23260;SDS011;11799;47.740;-3.390;2022-07-06T02:34:56;5.03;;;1.90;;
23260;SDS011;11799;47.740;-3.390;2022-07-06T02:37:22;5.40;;;1.83;;
23260;SDS011;11799;47.740;-3.390;2022-07-06T02:39:49;3.70;;;2.13;;
23260;SDS011;11799;47.740;-3.390;2022-07-06T02:42:14;6.35;;;2.20;;
23260;SDS011;11799;47.740;-3.390;2022-07-06T02:44:40;4.80;;;2.08;;
23260;SDS011;11799;47.740;-3.390;2022-07-06T02:47:06;3.50;;;2.05;;
23260;SDS011;11799;47.740;-3.390;2022-07-06T02:49:32;4.28;;;2.33;;
23260;SDS011;11799;47.740;-3.390;2022-07-06T02:51:57;3.70;;;2.17;;
23260;SDS011;11799;47.740;-3.390;2022-07-06T02:54:23;3.40;;;2.13;;
23260;SDS011;11799;47.740;-3.390;2022-07-06T02:56:49;4.00;;;2.30;;
23260;SDS011;11799;47.740;-3.390;2022-07-06T02:59:19;4.60;;;2.15;;
23260;SDS011;11799;47.740;-3.390;2022-07-06T03:01:45;5.85;;;2.00;;
23260;SDS011;11799;47.740;-3.390;2022-07-06T03:04:11;4.85;;;2.17;;
23260;SDS011;11799;47.740;-3.390;2022-07-06T03:06:37;4.38;;;2.10;;
23260;SDS011;11799;47.740;-3.390;2022-07-06T03:09:02;3.85;;;2.05;;
23260;SDS011;11799;47.740;-3.390;2022-07-06T03:11:29;5.60;;;2.28;;
23260;SDS011;11799;47.740;-3.390;2022-07-06T03:13:55;7.53;;;2.40;;
23260;SDS011;11799;47.740;-3.390;2022-07-06T03:16:21;4.47;;;2.40;;
23260;SDS011;11799;47.740;-3.390;2022-07-06T03:18:47;8.18;;;2.35;;
23260;SDS011;11799;47.740;-3.390;2022-07-06T03:21:12;4.78;;;2.28;;
23260;SDS011;11799;47.740;-3.390;2022-07-06T03:23:38;4.15;;;2.08;;
23260;SDS011;11799;47.740;-3.390;2022-07-06T03:26:04;5.72;;;2.47;;
23260;SDS011;11799;47.740;-3.390;2022-07-06T03:28:31;5.25;;;2.30;;
23260;SDS011;11799;47.740;-3.390;2022-07-06T03:30:57;3.28;;;2.10;;
23260;SDS011;11799;47.740;-3.390;2022-07-06T03:33:23;5.15;;;2.13;;
23260;SDS011;11799;47.740;-3.390;2022-07-06T03:35:48;4.93;;;2.38;;
23260;SDS011;11799;47.740;-3.390;2022-07-06T03:38:14;4.60;;;2.42;;
23260;SDS011;11799;47.740;-3.390;2022-07-06T03:40:41;5.80;;;2.20;;
23260;SDS011;11799;47.740;-3.390;2022-07-06T03:43:06;4.07;;;2.50;;
23260;SDS011;11799;47.740;-3.390;2022-07-06T03:45:34;4.88;;;2.50;;
23260;SDS011;11799;47.740;-3.390;2022-07-06T03:48:01;5.68;;;2.40;;
23260;SDS011;11799;47.740;-3.390;2022-07-06T03:50:29;5.22;;;2.33;;
23260;SDS011;11799;47.740;-3.390;2022-07-06T03:52:54;5.20;;;2.28;;
23260;SDS011;11799;47.740;-3.390;2022-07-06T03:55:20;4.50;;;2.40;;
23260;SDS011;11799;47.740;-3.390;2022-07-06T04:00:20;7.13;;;2.30;;
23260;SDS011;11799;47.740;-3.390;2022-07-06T04:02:53;4.30;;;2.15;;
23260;SDS011;11799;47.740;-3.390;2022-07-06T04:05:22;7.80;;;2.60;;
23260;SDS011;11799;47.740;-3.390;2022-07-06T04:07:51;5.93;;;2.22;;
23260;SDS011;11799;47.740;-3.390;2022-07-06T04:10:17;5.40;;;2.05;;
23260;SDS011;11799;47.740;-3.390;2022-07-06T04:12:43;5.78;;;2.10;;
23260;SDS011;11799;47.740;-3.390;2022-07-06T04:15:10;4.70;;;2.35;;
23260;SDS011;11799;47.740;-3.390;2022-07-06T04:17:37;6.38;;;2.10;;
23260;SDS011;11799;47.740;-3.390;2022-07-06T04:20:24;6.07;;;2.42;;
23260;SDS011;11799;47.740;-3.390;2022-07-06T04:22:51;6.18;;;2.13;;
23260;SDS011;11799;47.740;-3.390;2022-07-06T04:25:18;5.35;;;2.53;;
23260;SDS011;11799;47.740;-3.390;2022-07-06T04:27:44;6.88;;;2.63;;
23260;SDS011;11799;47.740;-3.390;2022-07-06T04:30:10;5.13;;;2.75;;
23260;SDS011;11799;47.740;-3.390;2022-07-06T04:32:38;8.15;;;2.78;;
23260;SDS011;11799;47.740;-3.390;2022-07-06T04:35:04;2.42;;;2.22;;
23260;SDS011;11799;47.740;-3.390;2022-07-06T04:37:30;3.38;;;2.45;;
23260;SDS011;11799;47.740;-3.390;2022-07-06T04:39:56;5.30;;;2.40;;
23260;SDS011;11799;47.740;-3.390;2022-07-06T04:42:22;4.97;;;2.63;;
23260;SDS011;11799;47.740;-3.390;2022-07-06T04:44:49;6.38;;;2.58;;
23260;SDS011;11799;47.740;-3.390;2022-07-06T04:47:16;7.75;;;2.80;;
23260;SDS011;11799;47.740;-3.390;2022-07-06T04:49:43;4.63;;;2.70;;
23260;SDS011;11799;47.740;-3.390;2022-07-06T04:52:09;3.38;;;2.70;;
23260;SDS011;11799;47.740;-3.390;2022-07-06T04:54:35;4.25;;;2.60;;
23260;SDS011;11799;47.740;-3.390;2022-07-06T04:57:00;5.15;;;2.85;;
23260;SDS011;11799;47.740;-3.390;2022-07-06T04:59:26;4.38;;;2.45;;
23260;SDS011;11799;47.740;-3.390;2022-07-06T05:01:52;4.65;;;2.83;;
23260;SDS011;11799;47.740;-3.390;2022-07-06T05:04:18;6.28;;;2.92;;
23260;SDS011;11799;47.740;-3.390;2022-07-06T05:06:45;6.20;;;3.00;;
23260;SDS011;11799;47.740;-3.390;2022-07-06T05:09:12;4.70;;;2.70;;
23260;SDS011;11799;47.740;-3.390;2022-07-06T05:11:38;4.68;;;2.78;;
23260;SDS011;11799;47.740;-3.390;2022-07-06T05:14:05;5.68;;;3.30;;
23260;SDS011;11799;47.740;-3.390;2022-07-06T05:16:31;4.00;;;2.90;;
23260;SDS011;11799;47.740;-3.390;2022-07-06T05:18:57;5.00;;;3.42;;
23260;SDS011;11799;47.740;-3.390;2022-07-06T05:21:23;4.38;;;3.25;;
23260;SDS011;11799;47.740;-3.390;2022-07-06T05:23:50;5.47;;;3.25;;
23260;SDS011;11799;47.740;-3.390;2022-07-06T05:26:16;7.68;;;3.22;;
23260;SDS011;11799;47.740;-3.390;2022-07-06T05:28:43;5.75;;;3.35;;
23260;SDS011;11799;47.740;-3.390;2022-07-06T05:31:12;4.78;;;3.70;;
23260;SDS011;11799;47.740;-3.390;2022-07-06T05:33:38;7.85;;;3.80;;
23260;SDS011;11799;47.740;-3.390;2022-07-06T05:36:04;6.32;;;3.63;;
23260;SDS011;11799;47.740;-3.390;2022-07-06T05:38:30;4.18;;;3.42;;
23260;SDS011;11799;47.740;-3.390;2022-07-06T05:40:58;4.53;;;3.42;;
23260;SDS011;11799;47.740;-3.390;2022-07-06T05:43:24;5.95;;;3.63;;
23260;SDS011;11799;47.740;-3.390;2022-07-06T05:45:51;5.95;;;3.58;;
23260;SDS011;11799;47.740;-3.390;2022-07-06T05:48:18;5.03;;;3.80;;
23260;SDS011;11799;47.740;-3.390;2022-07-06T05:51:04;6.20;;;4.15;;
23260;SDS011;11799;47.740;-3.390;2022-07-06T05:53:30;6.50;;;3.80;;
23260;SDS011;11799;47.740;-3.390;2022-07-06T05:55:56;4.78;;;3.47;;
23260;SDS011;11799;47.740;-3.390;2022-07-06T05:58:22;4.05;;;3.65;;
23260;SDS011;11799;47.740;-3.390;2022-07-06T06:00:49;6.03;;;3.35;;
23260;SDS011;11799;47.740;-3.390;2022-07-06T06:03:18;4.57;;;3.30;;
23260;SDS011;11799;47.740;-3.390;2022-07-06T06:05:44;4.60;;;3.47;;
23260;SDS011;11799;47.740;-3.390;2022-07-06T06:08:11;3.45;;;3.13;;
23260;SDS011;11799;47.740;-3.390;2022-07-06T06:10:37;2.67;;;2.47;;
23260;SDS011;11799;47.740;-3.390;2022-07-06T06:13:06;4.00;;;2.70;;
23260;SDS011;11799;47.740;-3.390;2022-07-06T06:15:34;3.85;;;2.60;;
23260;SDS011;11799;47.740;-3.390;2022-07-06T06:18:00;3.47;;;2.60;;
23260;SDS011;11799;47.740;-3.390;2022-07-06T06:20:26;4.65;;;2.55;;
23260;SDS011;11799;47.740;-3.390;2022-07-06T06:22:58;3.72;;;2.03;;
23260;SDS011;11799;47.740;-3.390;2022-07-06T06:25:28;4.93;;;2.20;;
23260;SDS011;11799;47.740;-3.390;2022-07-06T06:27:58;2.15;;;1.70;;
23260;SDS011;11799;47.740;-3.390;2022-07-06T06:30:24;2.17;;;1.85;;
23260;SDS011;11799;47.740;-3.390;2022-07-06T06:32:50;2.92;;;1.75;;
23260;SDS011;11799;47.740;-3.390;2022-07-06T06:35:15;3.90;;;1.90;;
23260;SDS011;11799;47.740;-3.390;2022-07-06T06:37:41;2.28;;;1.58;;
23260;SDS011;11799;47.740;-3.390;2022-07-06T06:40:07;3.92;;;1.67;;
23260;SDS011;11799;47.740;-3.390;2022-07-06T06:42:36;3.50;;;1.50;;
23260;SDS011;11799;47.740;-3.390;2022-07-06T06:45:06;1.92;;;1.40;;
23260;SDS011;11799;47.740;-3.390;2022-07-06T06:47:32;2.38;;;1.50;;
23260;SDS011;11799;47.740;-3.390;2022-07-06T06:49:57;2.22;;;1.60;;
23260;SDS011;11799;47.740;-3.390;2022-07-06T06:52:23;1.75;;;1.27;;
23260;SDS011;11799;47.740;-3.390;2022-07-06T06:54:48;1.30;;;1.20;;
23260;SDS011;11799;47.740;-3.390;2022-07-06T06:57:14;1.80;;;1.30;;
23260;SDS011;11799;47.740;-3.390;2022-07-06T06:59:40;2.40;;;1.30;;
23260;SDS011;11799;47.740;-3.390;2022-07-06T07:02:05;2.17;;;1.20;;
23260;SDS011;11799;47.740;-3.390;2022-07-06T07:04:31;2.70;;;1.30;;
23260;SDS011;11799;47.740;-3.390;2022-07-06T07:06:57;2.67;;;1.10;;
23260;SDS011;11799;47.740;-3.390;2022-07-06T07:09:22;1.55;;;1.17;;
23260;SDS011;11799;47.740;-3.390;2022-07-06T07:11:48;2.45;;;0.93;;
23260;SDS011;11799;47.740;-3.390;2022-07-06T07:14:13;1.35;;;1.00;;
23260;SDS011;11799;47.740;-3.390;2022-07-06T07:16:39;2.95;;;1.30;;
23260;SDS011;11799;47.740;-3.390;2022-07-06T07:19:04;2.28;;;0.93;;
23260;SDS011;11799;47.740;-3.390;2022-07-06T07:21:30;1.65;;;1.02;;
23260;SDS011;11799;47.740;-3.390;2022-07-06T07:23:55;1.92;;;1.10;;
23260;SDS011;11799;47.740;-3.390;2022-07-06T07:26:21;1.20;;;1.10;;
23260;SDS011;11799;47.740;-3.390;2022-07-06T07:28:47;1.02;;;0.93;;
23260;SDS011;11799;47.740;-3.390;2022-07-06T07:31:12;1.65;;;1.10;;
23260;SDS011;11799;47.740;-3.390;2022-07-06T07:33:38;2.47;;;1.00;;
23260;SDS011;11799;47.740;-3.390;2022-07-06T07:36:03;1.05;;;0.93;;
23260;SDS011;11799;47.740;-3.390;2022-07-06T07:38:29;1.20;;;1.00;;
23260;SDS011;11799;47.740;-3.390;2022-07-06T07:40:55;1.85;;;0.93;;
23260;SDS011;11799;47.740;-3.390;2022-07-06T07:43:21;4.15;;;1.10;;
23260;SDS011;11799;47.740;-3.390;2022-07-06T07:45:47;1.20;;;1.10;;
23260;SDS011;11799;47.740;-3.390;2022-07-06T07:48:13;1.20;;;1.08;;
23260;SDS011;11799;47.740;-3.390;2022-07-06T07:50:40;2.08;;;1.20;;
23260;SDS011;11799;47.740;-3.390;2022-07-06T07:53:06;1.92;;;1.10;;
23260;SDS011;11799;47.740;-3.390;2022-07-06T07:55:31;1.55;;;1.30;;
23260;SDS011;11799;47.740;-3.390;2022-07-06T07:57:57;1.20;;;0.90;;
23260;SDS011;11799;47.740;-3.390;2022-07-06T08:00:23;1.13;;;1.00;;
23260;SDS011;11799;47.740;-3.390;2022-07-06T08:02:49;1.55;;;1.13;;
23260;SDS011;11799;47.740;-3.390;2022-07-06T08:05:15;1.75;;;1.20;;
23260;SDS011;11799;47.740;-3.390;2022-07-06T08:07:44;1.38;;;1.20;;
23260;SDS011;11799;47.740;-3.390;2022-07-06T08:10:10;1.20;;;1.10;;
23260;SDS011;11799;47.740;-3.390;2022-07-06T08:12:36;1.75;;;1.05;;
23260;SDS011;11799;47.740;-3.390;2022-07-06T08:15:02;1.35;;;1.25;;
23260;SDS011;11799;47.740;-3.390;2022-07-06T08:17:28;1.40;;;1.30;;
23260;SDS011;11799;47.740;-3.390;2022-07-06T08:19:54;1.35;;;1.25;;
23260;SDS011;11799;47.740;-3.390;2022-07-06T08:22:20;1.70;;;1.30;;
23260;SDS011;11799;47.740;-3.390;2022-07-06T08:24:46;2.45;;;1.10;;
23260;SDS011;11799;47.740;-3.390;2022-07-06T08:27:11;1.95;;;1.52;;
23260;SDS011;11799;47.740;-3.390;2022-07-06T08:29:37;3.60;;;1.40;;
23260;SDS011;11799;47.740;-3.390;2022-07-06T08:32:02;1.23;;;1.13;;
23260;SDS011;11799;47.740;-3.390;2022-07-06T08:34:28;13.50;;;1.77;;
23260;SDS011;11799;47.740;-3.390;2022-07-06T08:36:54;1.30;;;1.20;;
23260;SDS011;11799;47.740;-3.390;2022-07-06T08:39:19;4.15;;;1.20;;
23260;SDS011;11799;47.740;-3.390;2022-07-06T08:41:45;1.15;;;1.05;;
23260;SDS011;11799;47.740;-3.390;2022-07-06T08:44:16;1.13;;;1.07;;
23260;SDS011;11799;47.740;-3.390;2022-07-06T08:46:43;2.15;;;1.10;;
23260;SDS011;11799;47.740;-3.390;2022-07-06T08:49:12;2.20;;;1.10;;
23260;SDS011;11799;47.740;-3.390;2022-07-06T08:51:38;1.40;;;1.15;;
23260;SDS011;11799;47.740;-3.390;2022-07-06T08:54:05;1.13;;;1.00;;
23260;SDS011;11799;47.740;-3.390;2022-07-06T08:56:32;2.00;;;1.10;;
23260;SDS011;11799;47.740;-3.390;2022-07-06T08:58:58;1.52;;;1.00;;
23260;SDS011;11799;47.740;-3.390;2022-07-06T09:01:25;1.30;;;0.90;;
23260;SDS011;11799;47.740;-3.390;2022-07-06T09:03:51;1.30;;;0.95;;
23260;SDS011;11799;47.740;-3.390;2022-07-06T09:06:25;0.97;;;0.90;;
23260;SDS011;11799;47.740;-3.390;2022-07-06T09:08:55;1.23;;;0.90;;
23260;SDS011;11799;47.740;-3.390;2022-07-06T09:11:22;1.92;;;0.88;;
23260;SDS011;11799;47.740;-3.390;2022-07-06T09:13:51;1.55;;;0.98;;
23260;SDS011;11799;47.740;-3.390;2022-07-06T09:16:19;1.48;;;0.82;;
23260;SDS011;11799;47.740;-3.390;2022-07-06T09:18:51;2.05;;;1.05;;
23260;SDS011;11799;47.740;-3.390;2022-07-06T09:21:26;2.60;;;0.80;;
23260;SDS011;11799;47.740;-3.390;2022-07-06T09:23:58;1.95;;;0.95;;
23260;SDS011;11799;47.740;-3.390;2022-07-06T09:26:25;0.95;;;0.80;;
23260;SDS011;11799;47.740;-3.390;2022-07-06T09:28:54;0.80;;;0.80;;
23260;SDS011;11799;47.740;-3.390;2022-07-06T09:31:21;1.20;;;0.90;;
23260;SDS011;11799;47.740;-3.390;2022-07-06T09:33:53;1.10;;;0.90;;
23260;SDS011;11799;47.740;-3.390;2022-07-06T09:39:17;2.42;;;0.90;;
23260;SDS011;11799;47.740;-3.390;2022-07-06T09:44:32;1.13;;;0.80;;
23260;SDS011;11799;47.740;-3.390;2022-07-06T09:47:02;1.85;;;0.80;;
23260;SDS011;11799;47.740;-3.390;2022-07-06T09:49:29;1.80;;;0.90;;
23260;SDS011;11799;47.740;-3.390;2022-07-06T09:51:56;1.15;;;0.90;;
23260;SDS011;11799;47.740;-3.390;2022-07-06T09:54:23;1.17;;;0.85;;
23260;SDS011;11799;47.740;-3.390;2022-07-06T09:56:50;1.02;;;0.93;;
23260;SDS011;11799;47.740;-3.390;2022-07-06T09:59:17;0.70;;;0.70;;
23260;SDS011;11799;47.740;-3.390;2022-07-06T10:01:44;1.10;;;0.88;;
23260;SDS011;11799;47.740;-3.390;2022-07-06T10:04:10;2.20;;;1.10;;
23260;SDS011;11799;47.740;-3.390;2022-07-06T10:06:43;1.23;;;1.00;;
23260;SDS011;11799;47.740;-3.390;2022-07-06T10:09:10;2.72;;;0.85;;
23260;SDS011;11799;47.740;-3.390;2022-07-06T10:11:52;1.80;;;1.10;;
23260;SDS011;11799;47.740;-3.390;2022-07-06T10:14:23;1.83;;;0.90;;
23260;SDS011;11799;47.740;-3.390;2022-07-06T10:16:50;3.15;;;0.80;;
23260;SDS011;11799;47.740;-3.390;2022-07-06T10:19:19;1.42;;;0.93;;
23260;SDS011;11799;47.740;-3.390;2022-07-06T10:21:46;1.20;;;1.10;;
23260;SDS011;11799;47.740;-3.390;2022-07-06T10:24:12;1.80;;;1.17;;
23260;SDS011;11799;47.740;-3.390;2022-07-06T10:26:39;1.17;;;1.02;;
23260;SDS011;11799;47.740;-3.390;2022-07-06T10:29:06;1.65;;;0.90;;
23260;SDS011;11799;47.740;-3.390;2022-07-06T10:31:32;1.13;;;0.80;;
23260;SDS011;11799;47.740;-3.390;2022-07-06T10:34:00;1.20;;;1.10;;
23260;SDS011;11799;47.740;-3.390;2022-07-06T10:36:27;0.82;;;0.82;;
23260;SDS011;11799;47.740;-3.390;2022-07-06T10:38:53;1.10;;;1.10;;
23260;SDS011;11799;47.740;-3.390;2022-07-06T10:41:32;1.13;;;1.02;;
23260;SDS011;11799;47.740;-3.390;2022-07-06T10:44:17;1.90;;;1.10;;
23260;SDS011;11799;47.740;-3.390;2022-07-06T10:46:55;1.42;;;1.20;;
23260;SDS011;11799;47.740;-3.390;2022-07-06T10:49:23;1.20;;;1.10;;
23260;SDS011;11799;47.740;-3.390;2022-07-06T10:51:50;1.10;;;0.90;;
23260;SDS011;11799;47.740;-3.390;2022-07-06T10:54:17;2.47;;;1.10;;
23260;SDS011;11799;47.740;-3.390;2022-07-06T10:59:14;1.10;;;1.00;;
23260;SDS011;11799;47.740;-3.390;2022-07-06T11:02:11;1.20;;;1.10;;
23260;SDS011;11799;47.740;-3.390;2022-07-06T11:04:35;1.38;;;0.98;;
23260;SDS011;11799;47.740;-3.390;2022-07-06T11:07:08;1.58;;;1.08;;
23260;SDS011;11799;47.740;-3.390;2022-07-06T11:09:35;1.88;;;1.10;;
23260;SDS011;11799;47.740;-3.390;2022-07-06T11:12:18;1.00;;;0.82;;
23260;SDS011;11799;47.740;-3.390;2022-07-06T11:14:45;1.42;;;0.88;;
23260;SDS011;11799;47.740;-3.390;2022-07-06T11:17:12;1.00;;;0.90;;
23260;SDS011;11799;47.740;-3.390;2022-07-06T11:19:38;1.48;;;0.90;;
23260;SDS011;11799;47.740;-3.390;2022-07-06T11:22:14;0.90;;;0.90;;
23260;SDS011;11799;47.740;-3.390;2022-07-06T11:24:41;0.90;;;0.90;;
23260;SDS011;11799;47.740;-3.390;2022-07-06T11:27:07;1.27;;;0.90;;
23260;SDS011;11799;47.740;-3.390;2022-07-06T11:29:34;2.70;;;1.00;;
23260;SDS011;11799;47.740;-3.390;2022-07-06T11:32:02;2.05;;;0.85;;
23260;SDS011;11799;47.740;-3.390;2022-07-06T11:34:31;1.52;;;1.20;;
23260;SDS011;11799;47.740;-3.390;2022-07-06T11:36:58;0.80;;;0.80;;
23260;SDS011;11799;47.740;-3.390;2022-07-06T11:39:32;2.95;;;1.00;;
23260;SDS011;11799;47.740;-3.390;2022-07-06T11:42:00;1.45;;;1.00;;
23260;SDS011;11799;47.740;-3.390;2022-07-06T11:44:26;4.00;;;0.95;;
23260;SDS011;11799;47.740;-3.390;2022-07-06T11:46:52;0.80;;;0.80;;
23260;SDS011;11799;47.740;-3.390;2022-07-06T11:49:20;2.13;;;1.00;;
23260;SDS011;11799;47.740;-3.390;2022-07-06T11:51:46;0.95;;;0.90;;
23260;SDS011;11799;47.740;-3.390;2022-07-06T11:54:12;0.88;;;0.73;;
23260;SDS011;11799;47.740;-3.390;2022-07-06T11:56:53;1.98;;;0.88;;
23260;SDS011;11799;47.740;-3.390;2022-07-06T11:59:26;1.52;;;1.13;;
23260;SDS011;11799;47.740;-3.390;2022-07-06T12:02:02;1.60;;;1.00;;
23260;SDS011;11799;47.740;-3.390;2022-07-06T12:04:28;1.13;;;0.80;;
23260;SDS011;11799;47.740;-3.390;2022-07-06T12:06:55;0.95;;;0.90;;
23260;SDS011;11799;47.740;-3.390;2022-07-06T12:09:28;0.73;;;0.73;;
23260;SDS011;11799;47.740;-3.390;2022-07-06T12:11:55;4.20;;;1.35;;
23260;SDS011;11799;47.740;-3.390;2022-07-06T12:14:21;0.80;;;0.80;;
23260;SDS011;11799;47.740;-3.390;2022-07-06T12:16:47;1.40;;;0.75;;
23260;SDS011;11799;47.740;-3.390;2022-07-06T12:19:14;0.82;;;0.80;;
23260;SDS011;11799;47.740;-3.390;2022-07-06T12:21:47;1.63;;;0.70;;
23260;SDS011;11799;47.740;-3.390;2022-07-06T12:24:21;1.23;;;0.70;;
23260;SDS011;11799;47.740;-3.390;2022-07-06T12:26:47;1.48;;;0.80;;
23260;SDS011;11799;47.740;-3.390;2022-07-06T12:29:14;1.05;;;0.85;;
23260;SDS011;11799;47.740;-3.390;2022-07-06T12:31:41;2.97;;;0.73;;
23260;SDS011;11799;47.740;-3.390;2022-07-06T12:34:16;0.60;;;0.60;;
23260;SDS011;11799;47.740;-3.390;2022-07-06T12:36:50;3.45;;;0.60;;
23260;SDS011;11799;47.740;-3.390;2022-07-06T12:39:17;2.30;;;0.80;;
23260;SDS011;11799;47.740;-3.390;2022-07-06T12:41:51;2.85;;;0.80;;
23260;SDS011;11799;47.740;-3.390;2022-07-06T12:44:24;1.15;;;0.70;;
23260;SDS011;11799;47.740;-3.390;2022-07-06T12:47:03;1.10;;;0.70;;
23260;SDS011;11799;47.740;-3.390;2022-07-06T12:49:34;0.68;;;0.60;;
23260;SDS011;11799;47.740;-3.390;2022-07-06T12:54:42;0.73;;;0.73;;
23260;SDS011;11799;47.740;-3.390;2022-07-06T13:00:02;0.95;;;0.60;;
23260;SDS011;11799;47.740;-3.390;2022-07-06T13:02:32;1.30;;;0.60;;
23260;SDS011;11799;47.740;-3.390;2022-07-06T13:07:27;0.73;;;0.60;;
23260;SDS011;11799;47.740;-3.390;2022-07-06T13:09:56;2.53;;;0.70;;
23260;SDS011;11799;47.740;-3.390;2022-07-06T13:12:21;1.23;;;0.70;;
23260;SDS011;11799;47.740;-3.390;2022-07-06T13:14:48;2.13;;;0.70;;
23260;SDS011;11799;47.740;-3.390;2022-07-06T13:17:14;1.52;;;0.70;;
23260;SDS011;11799;47.740;-3.390;2022-07-06T13:19:40;1.08;;;0.80;;
23260;SDS011;11799;47.740;-3.390;2022-07-06T13:22:05;0.75;;;0.75;;
23260;SDS011;11799;47.740;-3.390;2022-07-06T13:24:31;2.22;;;0.80;;
23260;SDS011;11799;47.740;-3.390;2022-07-06T13:26:57;1.10;;;0.82;;
23260;SDS011;11799;47.740;-3.390;2022-07-06T13:29:23;1.10;;;0.73;;
23260;SDS011;11799;47.740;-3.390;2022-07-06T13:31:49;1.00;;;0.90;;
23260;SDS011;11799;47.740;-3.390;2022-07-06T13:34:15;1.88;;;0.90;;
23260;SDS011;11799;47.740;-3.390;2022-07-06T13:36:40;1.25;;;0.90;;
23260;SDS011;11799;47.740;-3.390;2022-07-06T13:39:06;2.40;;;0.95;;
23260;SDS011;11799;47.740;-3.390;2022-07-06T13:41:32;0.88;;;0.82;;
23260;SDS011;11799;47.740;-3.390;2022-07-06T13:43:58;3.30;;;1.15;;
23260;SDS011;11799;47.740;-3.390;2022-07-06T13:46:26;2.97;;;1.00;;
23260;SDS011;11799;47.740;-3.390;2022-07-06T13:48:52;1.25;;;1.00;;
23260;SDS011;11799;47.740;-3.390;2022-07-06T13:51:18;0.98;;;0.77;;
23260;SDS011;11799;47.740;-3.390;2022-07-06T13:53:44;1.02;;;0.95;;
23260;SDS011;11799;47.740;-3.390;2022-07-06T13:56:10;1.10;;;0.95;;
23260;SDS011;11799;47.740;-3.390;2022-07-06T13:58:36;1.23;;;1.00;;
23260;SDS011;11799;47.740;-3.390;2022-07-06T14:01:01;0.88;;;0.80;;
23260;SDS011;11799;47.740;-3.390;2022-07-06T14:03:28;1.00;;;0.90;;
23260;SDS011;11799;47.740;-3.390;2022-07-06T14:05:58;0.88;;;0.88;;
23260;SDS011;11799;47.740;-3.390;2022-07-06T14:08:25;0.90;;;0.90;;
23260;SDS011;11799;47.740;-3.390;2022-07-06T14:10:52;2.53;;;0.63;;
23260;SDS011;11799;47.740;-3.390;2022-07-06T14:13:18;1.55;;;1.00;;
23260;SDS011;11799;47.740;-3.390;2022-07-06T14:15:44;0.77;;;0.77;;
23260;SDS011;11799;47.740;-3.390;2022-07-06T14:18:10;1.30;;;0.80;;
23260;SDS011;11799;47.740;-3.390;2022-07-06T14:20:36;1.95;;;1.00;;
23260;SDS011;11799;47.740;-3.390;2022-07-06T14:23:02;0.80;;;0.80;;
23260;SDS011;11799;47.740;-3.390;2022-07-06T14:25:28;1.17;;;0.93;;
23260;SDS011;11799;47.740;-3.390;2022-07-06T14:27:53;4.93;;;1.05;;
23260;SDS011;11799;47.740;-3.390;2022-07-06T14:30:19;0.80;;;0.80;;
23260;SDS011;11799;47.740;-3.390;2022-07-06T14:32:44;0.70;;;0.70;;
23260;SDS011;11799;47.740;-3.390;2022-07-06T14:35:11;1.30;;;0.93;;
23260;SDS011;11799;47.740;-3.390;2022-07-06T14:37:37;1.17;;;0.88;;
23260;SDS011;11799;47.740;-3.390;2022-07-06T14:40:03;1.50;;;0.95;;
23260;SDS011;11799;47.740;-3.390;2022-07-06T14:42:29;0.90;;;0.90;;
23260;SDS011;11799;47.740;-3.390;2022-07-06T14:44:55;1.25;;;1.08;;
23260;SDS011;11799;47.740;-3.390;2022-07-06T14:47:21;1.25;;;1.10;;
23260;SDS011;11799;47.740;-3.390;2022-07-06T14:49:46;4.03;;;1.00;;
23260;SDS011;11799;47.740;-3.390;2022-07-06T14:52:12;1.83;;;0.75;;